createdAt,value
2019-05-23T00:00:53.509Z,9.44
2019-05-23T00:03:23.902Z,9.44
2019-05-23T00:06:08.875Z,9.43
2019-05-23T00:08:37.869Z,9.36
2019-05-23T00:11:26.656Z,9.33
2019-05-23T00:14:00.535Z,9.25
2019-05-23T00:16:30.811Z,9.20
2019-05-23T00:19:00.469Z,9.21
2019-05-23T00:21:28.938Z,9.24
2019-05-23T00:23:58.553Z,9.28
2019-05-23T00:26:27.419Z,9.25
2019-05-23T00:29:09.442Z,9.22
2019-05-23T00:31:37.346Z,9.19
2019-05-23T00:34:07.290Z,9.11
2019-05-23T00:36:38.000Z,9.00
2019-05-23T00:39:08.955Z,8.94
2019-05-23T00:41:39.657Z,8.93
2019-05-23T00:44:08.523Z,8.90
2019-05-23T00:46:37.918Z,8.89
2019-05-23T00:49:08.214Z,8.91
2019-05-23T00:51:36.884Z,8.90
2019-05-23T00:54:07.110Z,8.74
2019-05-23T00:56:37.130Z,8.68
2019-05-23T00:59:06.879Z,8.67
2019-05-23T01:01:37.894Z,8.62
2019-05-23T01:04:07.193Z,8.60
2019-05-23T01:06:38.392Z,8.56
2019-05-23T01:09:07.915Z,8.57
2019-05-23T01:11:36.859Z,8.65
2019-05-23T01:14:05.791Z,8.62
2019-05-23T01:16:34.251Z,8.60
2019-05-23T01:19:04.638Z,8.60
2019-05-23T01:21:51.063Z,8.60
2019-05-23T01:24:36.180Z,8.57
2019-05-23T01:27:07.118Z,8.52
2019-05-23T01:29:40.956Z,8.44
2019-05-23T01:32:14.912Z,8.37
2019-05-23T01:34:45.070Z,8.32
2019-05-23T01:37:13.750Z,8.31
2019-05-23T01:39:42.773Z,8.29
2019-05-23T01:42:12.205Z,8.31
2019-05-23T01:44:41.057Z,8.24
2019-05-23T01:47:09.926Z,8.12
2019-05-23T01:49:38.877Z,8.11
2019-05-23T01:52:08.742Z,8.13
2019-05-23T01:54:37.925Z,8.15
2019-05-23T01:57:07.944Z,8.19
2019-05-23T01:59:36.983Z,8.26
2019-05-23T02:02:07.033Z,8.24
2019-05-23T02:04:36.087Z,8.19
2019-05-23T02:07:05.545Z,8.08
2019-05-23T02:09:34.622Z,7.96
2019-05-23T02:12:06.067Z,7.89
2019-05-23T02:14:34.746Z,7.83
2019-05-23T02:17:03.852Z,7.79
2019-05-23T02:19:32.380Z,7.77
2019-05-23T02:22:01.961Z,7.70
2019-05-23T02:24:31.484Z,7.65
2019-05-23T02:27:00.521Z,7.64
2019-05-23T02:29:29.802Z,7.58
2019-05-23T02:31:59.955Z,7.60
2019-05-23T02:34:28.819Z,7.64
2019-05-23T02:36:58.612Z,7.69
2019-05-23T02:39:34.466Z,7.72
2019-05-23T02:42:04.904Z,7.73
2019-05-23T02:44:34.416Z,7.70
2019-05-23T02:47:05.182Z,7.67
2019-05-23T02:49:34.576Z,7.65
2019-05-23T02:52:22.786Z,7.63
2019-05-23T02:54:54.196Z,7.62
2019-05-23T02:57:26.681Z,7.59
2019-05-23T02:59:59.244Z,7.57
2019-05-23T03:02:52.621Z,7.53
2019-05-23T03:05:22.802Z,7.45
2019-05-23T03:07:54.078Z,7.39
2019-05-23T03:10:24.118Z,7.30
2019-05-23T03:12:52.728Z,7.19
2019-05-23T03:15:24.745Z,7.13
2019-05-23T03:17:55.515Z,7.10
2019-05-23T03:20:25.124Z,7.07
2019-05-23T03:23:00.120Z,7.08
2019-05-23T03:25:39.590Z,7.07
2019-05-23T03:28:09.769Z,7.09
2019-05-23T03:30:40.081Z,7.10
2019-05-23T03:33:13.173Z,7.09
2019-05-23T03:35:52.291Z,7.08
2019-05-23T03:38:20.651Z,7.05
2019-05-23T03:40:49.548Z,7.01
2019-05-23T03:43:17.943Z,6.99
2019-05-23T03:45:51.276Z,6.95
2019-05-23T03:48:20.581Z,6.91
2019-05-23T03:50:50.635Z,6.91
2019-05-23T03:53:20.668Z,6.88
2019-05-23T03:55:50.133Z,6.84
2019-05-23T03:58:20.875Z,6.80
2019-05-23T04:00:50.930Z,6.77
2019-05-23T04:03:19.647Z,6.76
2019-05-23T04:05:49.231Z,6.78
2019-05-23T04:08:17.710Z,6.77
2019-05-23T04:10:50.783Z,6.74
2019-05-23T04:13:17.379Z,6.76
2019-05-23T04:15:46.130Z,6.80
2019-05-23T04:18:15.095Z,6.83
2019-05-23T04:20:43.868Z,6.79
2019-05-23T04:23:12.499Z,6.73
2019-05-23T04:25:40.989Z,6.69
2019-05-23T04:28:09.364Z,6.72
2019-05-23T04:30:37.789Z,6.77
2019-05-23T04:33:07.007Z,6.81
2019-05-23T04:35:35.921Z,6.85
2019-05-23T04:38:05.750Z,6.89
2019-05-23T04:40:34.307Z,6.98
2019-05-23T04:43:02.700Z,7.11
2019-05-23T04:45:31.307Z,7.26
2019-05-23T04:48:00.148Z,7.42
2019-05-23T04:50:29.664Z,7.62
2019-05-23T04:52:58.512Z,7.80
2019-05-23T04:55:27.169Z,8.01
2019-05-23T04:57:55.806Z,8.21
2019-05-23T05:00:24.972Z,8.31
2019-05-23T05:02:54.733Z,8.41
2019-05-23T05:05:23.660Z,8.57
2019-05-23T05:07:52.105Z,8.88
2019-05-23T05:10:23.558Z,9.09
2019-05-23T05:12:52.204Z,9.28
2019-05-23T05:15:20.942Z,9.58
2019-05-23T05:17:49.354Z,9.85
2019-05-23T05:20:18.004Z,10.08
2019-05-23T05:22:47.236Z,10.29
2019-05-23T05:25:17.355Z,10.48
2019-05-23T05:27:46.437Z,10.62
2019-05-23T05:30:16.401Z,10.74
2019-05-23T05:32:45.798Z,10.90
2019-05-23T05:35:15.698Z,11.06
2019-05-23T05:37:44.126Z,11.23
2019-05-23T05:40:13.370Z,11.42
2019-05-23T05:42:43.651Z,11.66
2019-05-23T05:45:12.330Z,11.83
2019-05-23T05:47:41.249Z,12.05
2019-05-23T05:50:10.956Z,12.37
2019-05-23T05:52:40.098Z,12.51
2019-05-23T05:55:09.245Z,12.75
2019-05-23T05:57:37.808Z,13.03
2019-05-23T06:00:12.959Z,13.19
2019-05-23T06:02:41.086Z,13.50
2019-05-23T06:05:11.497Z,13.76
2019-05-23T06:07:41.553Z,13.96
2019-05-23T06:10:12.270Z,14.11
2019-05-23T06:12:40.886Z,14.23
2019-05-23T06:15:11.301Z,14.41
2019-05-23T06:17:39.803Z,14.74
2019-05-23T06:20:08.753Z,14.97
2019-05-23T06:22:37.144Z,15.19
2019-05-23T06:25:08.438Z,15.18
2019-05-23T06:27:38.316Z,15.37
2019-05-23T06:30:10.582Z,15.42
2019-05-23T06:32:39.847Z,15.52
2019-05-23T06:35:08.596Z,15.77
2019-05-23T06:37:37.252Z,16.02
2019-05-23T06:40:09.193Z,16.31
2019-05-23T06:42:38.545Z,16.51
2019-05-23T06:45:10.841Z,16.67
2019-05-23T06:47:39.902Z,16.77
2019-05-23T06:50:18.618Z,16.88
2019-05-23T06:52:47.120Z,16.86
2019-05-23T06:55:16.430Z,17.01
2019-05-23T06:57:44.796Z,17.18
2019-05-23T07:00:14.986Z,17.21
2019-05-23T07:02:43.906Z,17.34
2019-05-23T07:05:13.074Z,17.42
2019-05-23T07:07:42.738Z,17.43
2019-05-23T07:10:11.376Z,17.46
2019-05-23T07:12:39.958Z,17.47
2019-05-23T07:15:08.823Z,17.81
2019-05-23T07:17:38.109Z,18.29
2019-05-23T07:20:07.962Z,18.69
2019-05-23T07:22:36.799Z,18.97
2019-05-23T07:25:08.945Z,19.14
2019-05-23T07:27:37.752Z,19.23
2019-05-23T07:30:09.715Z,19.14
2019-05-23T07:32:38.202Z,19.23
2019-05-23T07:35:06.690Z,19.36
2019-05-23T07:37:35.155Z,19.50
2019-05-23T07:40:05.006Z,19.59
2019-05-23T07:42:33.491Z,19.66
2019-05-23T07:45:05.123Z,19.93
2019-05-23T07:47:34.321Z,20.07
2019-05-23T07:50:03.371Z,19.96
2019-05-23T07:52:32.056Z,20.10
2019-05-23T07:55:02.112Z,20.34
2019-05-23T07:57:30.859Z,20.51
2019-05-23T07:59:59.319Z,20.60
2019-05-23T08:02:33.272Z,20.69
2019-05-23T08:05:02.061Z,20.73
2019-05-23T08:07:32.777Z,20.90
2019-05-23T08:10:00.605Z,20.88
2019-05-23T08:12:29.547Z,20.87
2019-05-23T08:14:58.193Z,20.86
2019-05-23T08:17:27.531Z,20.87
2019-05-23T08:19:55.938Z,20.93
2019-05-23T08:22:24.834Z,21.12
2019-05-23T08:24:53.782Z,21.26
2019-05-23T08:27:22.573Z,21.27
2019-05-23T08:29:51.309Z,21.30
2019-05-23T08:32:19.802Z,21.40
2019-05-23T08:34:48.548Z,21.63
2019-05-23T08:37:17.516Z,21.94
2019-05-23T08:39:46.918Z,22.04
2019-05-23T08:42:15.620Z,22.22
2019-05-23T08:44:44.397Z,21.98
2019-05-23T08:47:14.145Z,21.98
2019-05-23T08:49:43.086Z,21.96
2019-05-23T08:52:11.497Z,22.19
2019-05-23T08:54:40.163Z,22.12
2019-05-23T08:57:08.728Z,21.81
2019-05-23T08:59:37.372Z,22.00
2019-05-23T09:02:06.955Z,22.40
2019-05-23T09:04:35.890Z,22.86
2019-05-23T09:07:04.589Z,23.11
2019-05-23T09:09:33.763Z,23.07
2019-05-23T09:12:03.881Z,23.23
2019-05-23T09:14:32.299Z,23.43
2019-05-23T09:17:01.145Z,23.57
2019-05-23T09:19:29.822Z,23.91
2019-05-23T09:21:58.397Z,23.96
2019-05-23T09:24:27.442Z,23.81
2019-05-23T09:26:56.477Z,23.75
2019-05-23T09:29:25.266Z,23.94
2019-05-23T09:31:53.661Z,24.24
2019-05-23T09:34:22.633Z,24.14
2019-05-23T09:36:51.196Z,24.02
2019-05-23T09:39:21.253Z,24.08
2019-05-23T09:41:49.828Z,24.05
2019-05-23T09:44:18.328Z,23.60
2019-05-23T09:46:46.724Z,23.02
2019-05-23T09:49:15.200Z,23.02
2019-05-23T09:51:43.600Z,22.91
2019-05-23T09:54:12.435Z,22.88
2019-05-23T09:56:41.366Z,22.52
2019-05-23T09:59:09.786Z,23.05
2019-05-23T10:01:38.260Z,23.28
2019-05-23T10:04:07.752Z,23.57
2019-05-23T10:06:36.798Z,23.64
2019-05-23T10:09:07.833Z,23.80
2019-05-23T10:11:36.348Z,23.82
2019-05-23T10:14:07.037Z,23.86
2019-05-23T10:16:35.757Z,23.89
2019-05-23T10:19:04.545Z,24.03
2019-05-23T10:21:33.037Z,24.15
2019-05-23T10:24:01.463Z,24.20
2019-05-23T10:26:29.901Z,24.39
2019-05-23T10:28:58.325Z,24.58
2019-05-23T10:31:26.896Z,24.57
2019-05-23T10:33:55.591Z,24.43
2019-05-23T10:36:24.262Z,23.87
2019-05-23T10:38:52.720Z,23.73
2019-05-23T10:41:21.583Z,23.86
2019-05-23T10:43:50.080Z,23.86
2019-05-23T10:46:18.617Z,24.08
2019-05-23T10:48:47.365Z,23.84
2019-05-23T10:51:15.758Z,23.86
2019-05-23T10:53:44.217Z,23.81
2019-05-23T10:56:13.361Z,23.97
2019-05-23T10:58:41.838Z,24.16
2019-05-23T11:01:10.730Z,24.38
2019-05-23T11:03:39.158Z,24.60
2019-05-23T11:06:16.223Z,24.84
2019-05-23T11:08:38.282Z,25.07
2019-05-23T11:11:07.407Z,24.97
2019-05-23T11:13:36.093Z,25.14
2019-05-23T11:16:04.979Z,25.10
2019-05-23T11:18:33.448Z,25.10
2019-05-23T11:21:02.019Z,25.24
2019-05-23T11:23:35.101Z,25.24
2019-05-23T11:26:03.926Z,25.33
2019-05-23T11:28:35.205Z,25.33
2019-05-23T11:31:05.421Z,25.29
2019-05-23T11:33:34.130Z,25.36
2019-05-23T11:36:02.667Z,25.23
2019-05-23T11:38:31.299Z,24.97
2019-05-23T11:41:00.025Z,24.79
2019-05-23T11:43:28.422Z,24.74
2019-05-23T11:46:01.131Z,24.70
2019-05-23T11:48:30.195Z,24.45
2019-05-23T11:50:59.384Z,24.40
2019-05-23T11:53:28.460Z,24.40
2019-05-23T11:55:57.153Z,24.25
2019-05-23T11:58:25.837Z,24.15
2019-05-23T12:01:04.636Z,24.09
2019-05-23T12:03:33.050Z,24.09
2019-05-23T12:06:05.299Z,24.55
2019-05-23T12:08:32.143Z,24.55
2019-05-23T12:11:00.534Z,24.59
2019-05-23T12:13:29.303Z,24.67
2019-05-23T12:15:57.708Z,24.52
2019-05-23T12:18:26.185Z,24.52
2019-05-23T12:20:59.632Z,24.56
2019-05-23T12:23:27.226Z,24.75
2019-05-23T12:25:56.054Z,24.75
2019-05-23T12:28:25.032Z,24.89
2019-05-23T12:30:53.493Z,25.01
2019-05-23T12:33:21.982Z,24.81
2019-05-23T12:35:50.367Z,24.60
2019-05-23T12:38:19.137Z,24.40
2019-05-23T12:40:47.543Z,24.08
2019-05-23T12:43:16.022Z,24.05
2019-05-23T12:45:44.430Z,24.16
2019-05-23T12:48:26.882Z,24.39
2019-05-23T12:50:56.986Z,24.01
2019-05-23T12:53:25.524Z,23.87
2019-05-23T12:55:54.210Z,23.86
2019-05-23T12:58:23.760Z,24.01
2019-05-23T13:00:54.226Z,24.20
2019-05-23T13:03:23.401Z,24.34
2019-05-23T13:05:51.801Z,24.47
2019-05-23T13:08:20.201Z,24.49
2019-05-23T13:10:48.625Z,24.50
2019-05-23T13:13:17.161Z,24.44
2019-05-23T13:15:45.855Z,24.31
2019-05-23T13:18:14.227Z,24.31
2019-05-23T13:20:42.904Z,24.36
2019-05-23T13:23:20.266Z,24.40
2019-05-23T13:25:41.916Z,24.52
2019-05-23T13:28:10.387Z,24.72
2019-05-23T13:30:38.865Z,24.96
2019-05-23T13:33:07.297Z,24.90
2019-05-23T13:35:35.941Z,24.55
2019-05-23T13:38:04.491Z,24.55
2019-05-23T13:40:33.103Z,24.43
2019-05-23T13:43:06.411Z,24.43
2019-05-23T13:45:31.781Z,24.50
2019-05-23T13:48:00.261Z,24.60
2019-05-23T13:50:28.914Z,24.71
2019-05-23T13:52:57.464Z,24.71
2019-05-23T13:55:26.344Z,24.71
2019-05-23T13:57:54.746Z,24.56
2019-05-23T14:00:25.142Z,24.32
2019-05-23T14:02:53.604Z,24.30
2019-05-23T14:05:22.763Z,24.46
2019-05-23T14:07:51.234Z,24.46
2019-05-23T14:10:19.980Z,24.30
2019-05-23T14:12:48.730Z,24.30
2019-05-23T14:15:19.419Z,24.38
2019-05-23T14:17:48.840Z,24.60
2019-05-23T14:20:17.365Z,24.71
2019-05-23T14:23:03.898Z,24.94
2019-05-23T14:25:32.940Z,24.98
2019-05-23T14:28:06.264Z,25.06
2019-05-23T14:30:39.144Z,25.10
2019-05-23T14:33:27.904Z,25.29
2019-05-23T14:35:58.030Z,25.65
2019-05-23T14:38:31.150Z,25.43
2019-05-23T14:40:58.523Z,24.91
2019-05-23T14:43:27.816Z,25.05
2019-05-23T14:46:07.241Z,25.20
2019-05-23T14:48:53.932Z,25.54
2019-05-23T14:51:40.305Z,25.81
2019-05-23T14:54:28.778Z,25.62
2019-05-23T14:56:57.349Z,25.63
2019-05-23T14:59:27.062Z,25.95
2019-05-23T15:01:55.547Z,26.03
2019-05-23T15:04:24.015Z,26.17
2019-05-23T15:06:52.619Z,26.07
2019-05-23T15:09:21.957Z,25.78
2019-05-23T15:11:50.402Z,25.04
2019-05-23T15:14:18.954Z,24.62
2019-05-23T15:16:47.354Z,24.47
2019-05-23T15:19:37.868Z,24.19
2019-05-23T15:21:46.256Z,23.89
2019-05-23T15:24:14.687Z,23.81
2019-05-23T15:26:43.270Z,23.88
2019-05-23T15:29:11.994Z,23.99
2019-05-23T15:31:40.487Z,23.86
2019-05-23T15:34:08.889Z,23.95
2019-05-23T15:36:37.346Z,24.08
2019-05-23T15:39:10.231Z,24.10
2019-05-23T15:41:38.547Z,23.72
2019-05-23T15:44:23.736Z,23.42
2019-05-23T15:46:37.692Z,23.19
2019-05-23T15:49:06.896Z,23.10
2019-05-23T15:51:36.944Z,23.22
2019-05-23T15:54:07.346Z,23.31
2019-05-23T15:56:43.294Z,23.45
2019-05-23T15:59:16.889Z,23.55
2019-05-23T16:01:46.922Z,23.53
2019-05-23T16:04:25.196Z,23.63
2019-05-23T16:06:54.533Z,23.68
2019-05-23T16:09:29.918Z,23.58
2019-05-23T16:11:54.386Z,23.48
2019-05-23T16:14:23.894Z,23.42
2019-05-23T16:16:56.182Z,23.45
2019-05-23T16:19:23.230Z,23.48
2019-05-23T16:21:52.138Z,23.55
2019-05-23T16:24:21.184Z,23.62
2019-05-23T16:26:49.757Z,23.63
2019-05-23T16:29:19.796Z,23.59
2019-05-23T16:31:48.230Z,23.64
2019-05-23T16:34:16.708Z,23.66
2019-05-23T16:36:45.142Z,23.68
2019-05-23T16:39:13.919Z,23.71
2019-05-23T16:41:42.510Z,23.72
2019-05-23T16:44:10.977Z,23.74
2019-05-23T16:46:39.746Z,23.75
2019-05-23T16:49:08.224Z,23.72
2019-05-23T16:51:36.693Z,23.68
2019-05-23T16:54:05.583Z,23.66
2019-05-23T16:56:38.873Z,23.51
2019-05-23T16:59:11.711Z,23.51
2019-05-23T17:02:05.644Z,23.45
2019-05-23T17:04:43.858Z,23.37
2019-05-23T17:07:17.711Z,23.22
2019-05-23T17:10:06.594Z,22.87
2019-05-23T17:12:22.311Z,22.87
2019-05-23T17:15:07.542Z,22.77
2019-05-23T17:18:00.162Z,22.67
2019-05-23T17:20:18.965Z,22.56
2019-05-23T17:22:53.504Z,22.47
2019-05-23T17:25:23.549Z,22.43
2019-05-23T17:27:53.696Z,22.36
2019-05-23T17:30:29.653Z,22.30
2019-05-23T17:32:58.042Z,22.26
2019-05-23T17:35:26.626Z,22.17
2019-05-23T17:37:55.190Z,22.07
2019-05-23T17:40:25.533Z,21.93
2019-05-23T17:42:54.298Z,21.78
2019-05-23T17:45:22.842Z,21.72
2019-05-23T17:47:51.856Z,21.67
2019-05-23T17:50:20.694Z,21.64
2019-05-23T17:52:49.161Z,21.61
2019-05-23T17:55:17.857Z,21.63
2019-05-23T17:57:46.266Z,21.64
2019-05-23T18:00:16.396Z,21.62
2019-05-23T18:02:45.349Z,21.59
2019-05-23T18:05:13.764Z,21.56
2019-05-23T18:07:42.521Z,21.49
2019-05-23T18:10:12.843Z,21.44
2019-05-23T18:12:41.516Z,21.53
2019-05-23T18:15:13.082Z,21.67
2019-05-23T18:17:41.487Z,21.65
2019-05-23T18:20:10.443Z,21.58
2019-05-23T18:22:39.626Z,21.46
2019-05-23T18:25:09.920Z,21.37
2019-05-23T18:27:38.982Z,21.24
2019-05-23T18:30:09.575Z,21.08
2019-05-23T18:32:38.749Z,20.96
2019-05-23T18:35:09.907Z,20.87
2019-05-23T18:37:38.591Z,20.77
2019-05-23T18:40:07.841Z,20.73
2019-05-23T18:42:36.432Z,20.67
2019-05-23T18:45:07.557Z,20.57
2019-05-23T18:47:37.652Z,20.48
2019-05-23T18:50:10.135Z,20.47
2019-05-23T18:52:38.541Z,20.38
2019-05-23T18:55:08.277Z,20.15
2019-05-23T18:57:37.049Z,19.91
2019-05-23T19:00:07.675Z,19.76
2019-05-23T19:02:36.340Z,19.60
2019-05-23T19:05:08.608Z,19.43
2019-05-23T19:07:39.049Z,19.29
2019-05-23T19:10:08.947Z,19.15
2019-05-23T19:12:37.806Z,19.07
2019-05-23T19:15:07.354Z,19.00
2019-05-23T19:17:37.497Z,18.89
2019-05-23T19:20:09.131Z,18.72
2019-05-23T19:22:38.977Z,18.70
2019-05-23T19:25:09.741Z,18.64
2019-05-23T19:27:38.691Z,18.58
2019-05-23T19:30:08.315Z,18.48
2019-05-23T19:32:36.816Z,18.40
2019-05-23T19:35:06.926Z,18.33
2019-05-23T19:37:35.424Z,18.20
2019-05-23T19:40:08.317Z,18.13
2019-05-23T19:42:37.107Z,18.00
2019-05-23T19:45:07.179Z,17.97
2019-05-23T19:47:35.569Z,17.99
2019-05-23T19:50:05.425Z,17.99
2019-05-23T19:52:33.917Z,17.94
2019-05-23T19:55:02.295Z,17.81
2019-05-23T19:57:31.356Z,17.60
2019-05-23T19:59:59.840Z,17.46
2019-05-23T20:02:30.062Z,17.36
2019-05-23T20:05:03.379Z,17.20
2019-05-23T20:07:31.853Z,17.11
2019-05-23T20:10:01.357Z,17.03
2019-05-23T20:12:29.881Z,16.94
2019-05-23T20:14:58.285Z,16.86
2019-05-23T20:17:26.714Z,16.71
2019-05-23T20:19:55.367Z,16.59
2019-05-23T20:22:23.843Z,16.46
2019-05-23T20:24:52.244Z,16.46
2019-05-23T20:27:20.729Z,16.57
2019-05-23T20:29:49.130Z,16.66
2019-05-23T20:32:17.622Z,16.68
2019-05-23T20:34:46.021Z,16.62
2019-05-23T20:37:14.505Z,16.53
2019-05-23T20:39:42.938Z,16.36
2019-05-23T20:42:12.212Z,16.17
2019-05-23T20:44:40.676Z,16.05
2019-05-23T20:47:09.611Z,16.01
2019-05-23T20:49:38.305Z,15.98
2019-05-23T20:52:06.767Z,16.00
2019-05-23T20:54:35.189Z,16.10
2019-05-23T20:57:04.321Z,16.08
2019-05-23T20:59:32.831Z,16.11
2019-05-23T21:02:01.966Z,16.16
2019-05-23T21:04:30.458Z,16.19
2019-05-23T21:06:58.873Z,16.20
2019-05-23T21:09:27.295Z,16.14
2019-05-23T21:11:55.722Z,15.99
2019-05-23T21:14:24.199Z,15.83
2019-05-23T21:16:52.675Z,15.75
2019-05-23T21:19:21.163Z,15.71
2019-05-23T21:21:49.553Z,15.54
2019-05-23T21:24:18.324Z,15.41
2019-05-23T21:26:46.721Z,15.46
2019-05-23T21:29:15.212Z,15.47
2019-05-23T21:31:43.608Z,15.47
2019-05-23T21:34:12.388Z,15.43
2019-05-23T21:36:40.782Z,15.37
2019-05-23T21:39:11.199Z,15.33
2019-05-23T21:41:39.974Z,15.34
2019-05-23T21:44:08.392Z,15.30
2019-05-23T21:46:36.859Z,15.23
2019-05-23T21:49:05.546Z,15.13
2019-05-23T21:51:34.316Z,15.07
2019-05-23T21:54:02.734Z,14.99
2019-05-23T21:56:31.442Z,14.90
2019-05-23T21:58:59.856Z,14.79
2019-05-23T22:01:30.164Z,14.66
2019-05-23T22:04:03.038Z,14.56
2019-05-23T22:06:35.784Z,14.49
2019-05-23T22:09:07.307Z,14.46
2019-05-23T22:11:35.789Z,14.50
2019-05-23T22:14:04.362Z,14.64
2019-05-23T22:16:32.862Z,14.65
2019-05-23T22:19:01.329Z,14.62
2019-05-23T22:21:29.976Z,14.54
2019-05-23T22:23:58.392Z,14.47
2019-05-23T22:26:26.814Z,14.45
2019-05-23T22:28:55.482Z,14.37
2019-05-23T22:31:24.397Z,14.32
2019-05-23T22:34:10.545Z,14.28
2019-05-23T22:36:39.022Z,14.30
2019-05-23T22:39:08.463Z,14.14
2019-05-23T22:41:37.538Z,14.06
2019-05-23T22:44:07.638Z,13.94
2019-05-23T22:46:36.378Z,13.83
2019-05-23T22:49:04.889Z,13.78
2019-05-23T22:51:33.275Z,13.75
2019-05-23T22:54:03.522Z,13.73
2019-05-23T22:56:31.954Z,13.70
2019-05-23T22:59:00.600Z,13.69
2019-05-23T23:01:29.946Z,13.67
2019-05-23T23:03:58.354Z,13.63
2019-05-23T23:06:27.134Z,13.59
2019-05-23T23:08:55.633Z,13.55
2019-05-23T23:11:24.454Z,13.52
2019-05-23T23:13:52.860Z,13.44
2019-05-23T23:16:21.254Z,13.38
2019-05-23T23:18:49.847Z,13.33
2019-05-23T23:21:18.260Z,13.28
2019-05-23T23:23:46.732Z,13.24
2019-05-23T23:26:15.145Z,13.15
2019-05-23T23:28:43.535Z,13.10
2019-05-23T23:31:11.945Z,13.07
2019-05-23T23:33:40.353Z,13.07
2019-05-23T23:36:08.766Z,13.02
2019-05-23T23:38:37.258Z,12.95
2019-05-23T23:41:05.654Z,12.89
2019-05-23T23:43:34.141Z,12.86
2019-05-23T23:46:20.386Z,12.87
2019-05-23T23:49:06.639Z,12.83
2019-05-23T23:51:52.619Z,12.74
2019-05-23T23:54:38.905Z,12.68
2019-05-23T23:57:25.110Z,12.57
2019-05-23T23:59:52.922Z,12.50
